Time;durP1;ratioP1;P1;durP2;ratioP2;P2;SDS_P1;SDS_P2;PMS_P1;PMS_P2;Temp;Humidity;BMP_temperature;BMP_pressure;BME280_temperature;BME280_humidity;BME280_pressure;Samples;Min_cycle;Max_cycle;Signal;HPM_P1;HPM_P2
2022/03/01 00:09:18;;;;;;;34.5;46.7;;;;;;;-3.2;80;100580;;;;
2022/03/01 00:20:18;;;;;;;34.5;46.7;;;;;;;-3.4;80;100590;;;;
2022/03/01 00:30:18;;;;;;;41.6;63;;;;;;;-3.7;79.9;100570;;;;
2022/03/01 00:40:18;;;;;;;41.6;63;;;;;;;-3.8;80.9;100580;;;;
2022/03/01 00:51:18;;;;;;;41.6;63;;;;;;;-3.9;81.3;100570;;;;
2022/03/01 01:02:18;;;;;;;34.6;47;;;;;;;-4;82.2;100570;;;;
2022/03/01 01:13:19;;;;;;;34.6;47;;;;;;;-4.2;81.4;100570;;;;
2022/03/01 01:23:18;;;;;;;34.6;47;;;;;;;-4.3;81.5;100580;;;;
2022/03/01 01:34:18;;;;;;;31.8;40;;;;;;;-4.5;81;100590;;;;
2022/03/01 01:44:18;;;;;;;31.8;40;;;;;;;-4.6;81.4;100590;;;;
2022/03/01 01:54:18;;;;;;;30.6;47.4;;;;;;;-4.6;81.6;100590;;;;
2022/03/01 02:05:18;;;;;;;30.6;47.4;;;;;;;-4.6;82.7;100580;;;;
2022/03/01 02:15:18;;;;;;;30.6;47.4;;;;;;;-4.7;81.9;100570;;;;
2022/03/01 02:26:18;;;;;;;30.7;47;;;;;;;-4.9;81.7;100580;;;;
2022/03/01 02:36:18;;;;;;;30.7;47;;;;;;;-4.9;82.5;100570;;;;
2022/03/01 02:47:18;;;;;;;30.7;47;;;;;;;-4.9;82.3;100560;;;;
2022/03/01 02:57:18;;;;;;;25.6;37.1;;;;;;;-5;81.8;100570;;;;
2022/03/01 03:08:18;;;;;;;25.6;37.1;;;;;;;-4.9;82.6;100560;;;;
2022/03/01 03:18:18;;;;;;;25.6;37.1;;;;;;;-4.8;82.2;100560;;;;
2022/03/01 03:28:18;;;;;;;22.6;33.7;;;;;;;-5;81.9;100560;;;;
2022/03/01 03:38:18;;;;;;;22.6;33.7;;;;;;;-5;82.3;100560;;;;
2022/03/01 03:48:18;;;;;;;22.6;33.7;;;;;;;-5.1;82;100550;;;;
2022/03/01 03:59:18;;;;;;;21.8;31.7;;;;;;;-5.2;81.9;100550;;;;
2022/03/01 04:10:18;;;;;;;21.8;31.7;;;;;;;-5.2;82.1;100540;;;;
2022/03/01 04:20:21;;;;;;;21.8;31.7;;;;;;;-5.2;81.8;100530;;;;
2022/03/01 04:31:18;;;;;;;20.3;31.2;;;;;;;-5.2;81.7;100530;;;;
2022/03/01 04:41:18;;;;;;;20.3;31.2;;;;;;;-5.2;81.5;100510;;;;
2022/03/01 04:51:21;;;;;;;20.3;31.2;;;;;;;-5.4;81;100500;;;;
2022/03/01 05:02:18;;;;;;;16.7;25.1;;;;;;;-5.5;80.6;100500;;;;
2022/03/01 05:12:19;;;;;;;16.7;25.1;;;;;;;-5.5;80.4;100500;;;;
2022/03/01 05:22:18;;;;;;;16.7;25.1;;;;;;;-5.6;80.3;100500;;;;
2022/03/01 05:32:18;;;;;;;16.3;25.5;;;;;;;-5.6;80.3;100500;;;;
2022/03/01 05:43:18;;;;;;;16.3;25.5;;;;;;;-5.6;80.2;100500;;;;
2022/03/01 05:53:18;;;;;;;19.4;30.9;;;;;;;-5.5;80.9;100510;;;;
2022/03/01 06:03:18;;;;;;;19.4;30.9;;;;;;;-5.3;81.3;100520;;;;
2022/03/01 06:14:18;;;;;;;19.4;30.9;;;;;;;-4.9;81.7;100520;;;;
2022/03/01 06:25:18;;;;;;;21.5;29.7;;;;;;;-4.5;82;100530;;;;
2022/03/01 06:35:18;;;;;;;21.5;29.7;;;;;;;-4.3;81.9;100530;;;;
2022/03/01 06:45:19;;;;;;;21.5;29.7;;;;;;;-3.9;81.9;100540;;;;
2022/03/01 06:56:19;;;;;;;25.5;33.8;;;;;;;-3.5;81.7;100540;;;;
2022/03/01 07:06:18;;;;;;;25.5;33.8;;;;;;;-3.1;81.7;100540;;;;
2022/03/01 07:17:18;;;;;;;25.5;33.8;;;;;;;-2.6;81.2;100550;;;;
2022/03/01 07:28:18;;;;;;;34;42.2;;;;;;;-2;80;100540;;;;
2022/03/01 07:38:18;;;;;;;34;42.2;;;;;;;-1.6;77.1;100540;;;;
2022/03/01 07:48:19;;;;;;;34;42.2;;;;;;;-1.1;76.2;100540;;;;
2022/03/01 07:59:18;;;;;;;26.5;30.7;;;;;;;-0.8;74.2;100530;;;;
2022/03/01 08:09:19;;;;;;;26.5;30.7;;;;;;;-0.4;73.7;100520;;;;
2022/03/01 08:20:19;;;;;;;26.5;30.7;;;;;;;0;72.2;100520;;;;
2022/03/01 08:31:18;;;;;;;21.6;30.3;;;;;;;0.4;73.6;100500;;;;
2022/03/01 08:41:19;;;;;;;21.6;30.3;;;;;;;0.9;71.4;100500;;;;
2022/03/01 08:51:19;;;;;;;21.6;30.3;;;;;;;1.4;69.4;100490;;;;
2022/03/01 09:01:19;;;;;;;20.9;30.4;;;;;;;1.7;67.3;100490;;;;
2022/03/01 09:12:07;;;;;;;20.9;30.4;;;;;;;1.7;63.9;100480;;;;
2022/03/01 09:22:07;;;;;;;11.6;13.8;;;;;;;1.8;63;100480;;;;
2022/03/01 09:32:07;;;;;;;11.6;13.8;;;;;;;2.2;60.5;100460;;;;
2022/03/01 09:42:08;;;;;;;11.6;13.8;;;;;;;2.3;58.4;100450;;;;
2022/03/01 09:52:07;;;;;;;6.6;9.9;;;;;;;2.4;56.5;100430;;;;
2022/03/01 10:03:07;;;;;;;6.6;9.9;;;;;;;2.5;54.6;100420;;;;
2022/03/01 10:13:07;;;;;;;6.6;9.9;;;;;;;2.8;53;100420;;;;
2022/03/01 10:23:07;;;;;;;7.3;11.6;;;;;;;2.8;54;100410;;;;
2022/03/01 10:33:07;;;;;;;7.3;11.6;;;;;;;2.7;52.6;100410;;;;
2022/03/01 10:44:07;;;;;;;7.3;11.6;;;;;;;3.2;52.5;100390;;;;
2022/03/01 10:54:07;;;;;;;7;10.7;;;;;;;3.5;52;100390;;;;
2022/03/01 11:05:07;;;;;;;7;10.7;;;;;;;3.6;49.6;100380;;;;
2022/03/01 11:15:07;;;;;;;7;10.7;;;;;;;3.3;50.6;100350;;;;
2022/03/01 11:25:07;;;;;;;7.2;10.8;;;;;;;3.5;49.5;100330;;;;
2022/03/01 11:35:07;;;;;;;7.2;10.8;;;;;;;3.8;48.1;100330;;;;
2022/03/01 11:46:07;;;;;;;7.2;10.8;;;;;;;4.1;47.7;100300;;;;
2022/03/01 11:56:07;;;;;;;7.3;9.6;;;;;;;4.2;47.9;100290;;;;
2022/03/01 12:06:07;;;;;;;7.3;9.6;;;;;;;4.1;46.7;100270;;;;
2022/03/01 12:17:07;;;;;;;7.3;9.6;;;;;;;4.3;46.5;100260;;;;
2022/03/01 12:27:09;;;;;;;8.7;13.7;;;;;;;4.4;45;100250;;;;
2022/03/01 12:37:07;;;;;;;8.7;13.7;;;;;;;4.3;45.1;100230;;;;
2022/03/01 12:48:07;;;;;;;8.7;13.7;;;;;;;4.9;42.7;100200;;;;
2022/03/01 12:59:07;;;;;;;7.7;13.1;;;;;;;4.3;42.9;100190;;;;
2022/03/01 13:10:07;;;;;;;7.7;13.1;;;;;;;4.6;41.7;100170;;;;
2022/03/01 13:21:07;;;;;;;6.4;9.6;;;;;;;4.4;42.3;100150;;;;
2022/03/01 13:32:07;;;;;;;6.4;9.6;;;;;;;4.5;37.3;100140;;;;
2022/03/01 13:43:07;;;;;;;6.4;9.6;;;;;;;4.7;34.4;100120;;;;
2022/03/01 13:54:07;;;;;;;4.8;8.3;;;;;;;4.7;37.8;100120;;;;
2022/03/01 14:05:07;;;;;;;4.8;8.3;;;;;;;4.6;37.9;100120;;;;
2022/03/01 14:16:07;;;;;;;4.8;8.3;;;;;;;4.4;37.4;100100;;;;
2022/03/01 14:27:07;;;;;;;;;;;;;;;;;;;;;
2022/03/01 14:37:07;;;;;;;6.6;10.2;;;;;;;4.5;40.3;100080;;;;
2022/03/01 14:47:07;;;;;;;6.6;10.2;;;;;;;4.2;42.3;100080;;;;
2022/03/01 14:58:07;;;;;;;12.9;16.2;;;;;;;4;41.6;100070;;;;
2022/03/01 15:09:07;;;;;;;12.9;16.2;;;;;;;3.8;41.2;100060;;;;
2022/03/01 15:20:07;;;;;;;12.9;16.2;;;;;;;3.6;41.3;100050;;;;
2022/03/01 15:30:07;;;;;;;12.2;16.7;;;;;;;3.2;42.2;100040;;;;
2022/03/01 15:41:07;;;;;;;12.2;16.7;;;;;;;2.9;43.8;100030;;;;
2022/03/01 15:52:07;;;;;;;23;30.3;;;;;;;2.6;44.6;100040;;;;
2022/03/01 16:03:09;;;;;;;23;30.3;;;;;;;2.2;45.8;100040;;;;
2022/03/01 16:13:07;;;;;;;23;30.3;;;;;;;1.8;47.5;100040;;;;
2022/03/01 16:24:07;;;;;;;28.9;34.9;;;;;;;1.3;48.8;100040;;;;
2022/03/01 16:34:07;;;;;;;28.9;34.9;;;;;;;0.7;50.3;100040;;;;
2022/03/01 16:44:07;;;;;;;28.9;34.9;;;;;;;0.2;51.7;100040;;;;
2022/03/01 16:54:07;;;;;;;20.7;24.6;;;;;;;-0.4;53;100040;;;;
2022/03/01 17:04:07;;;;;;;20.7;24.6;;;;;;;-0.7;53.8;100040;;;;
2022/03/01 17:14:07;;;;;;;20.7;24.6;;;;;;;-1.1;55.3;100050;;;;
2022/03/01 17:25:07;;;;;;;42.3;60.9;;;;;;;-1.4;56.3;100040;;;;
2022/03/01 17:35:07;;;;;;;42.3;60.9;;;;;;;-1.6;57.3;100030;;;;
2022/03/01 17:45:07;;;;;;;42.3;60.9;;;;;;;-1.7;57.7;100020;;;;
2022/03/01 17:55:07;;;;;;;80.8;107.5;;;;;;;-1.8;59.2;100030;;;;
2022/03/01 18:05:07;;;;;;;80.8;107.5;;;;;;;-2.1;59.1;100030;;;;
2022/03/01 18:15:07;;;;;;;80.8;107.5;;;;;;;-2.2;60.5;100020;;;;
2022/03/01 18:26:07;;;;;;;73.3;102.1;;;;;;;-2.3;61;100020;;;;
2022/03/01 18:36:07;;;;;;;73.3;102.1;;;;;;;-2.2;61.4;100020;;;;
2022/03/01 18:47:07;;;;;;;73.3;102.1;;;;;;;-2.3;61.2;100020;;;;
2022/03/01 18:58:07;;;;;;;59.9;84.6;;;;;;;-2.5;61.4;100020;;;;
2022/03/01 19:09:07;;;;;;;59.9;84.6;;;;;;;-2.8;61.9;100020;;;;
2022/03/01 19:19:07;;;;;;;59.9;84.6;;;;;;;-3.1;62.5;100020;;;;
2022/03/01 19:30:07;;;;;;;45.1;68.2;;;;;;;-3.2;64.4;100030;;;;
2022/03/01 19:41:07;;;;;;;45.1;68.2;;;;;;;-3.1;66.4;100020;;;;
2022/03/01 19:51:07;;;;;;;49.6;66.1;;;;;;;-3.1;65.7;100020;;;;
2022/03/01 20:02:07;;;;;;;49.6;66.1;;;;;;;-3.2;65.2;100010;;;;
2022/03/01 20:12:07;;;;;;;49.6;66.1;;;;;;;-3;64.2;100010;;;;
2022/03/01 20:23:10;;;;;;;43;61.6;;;;;;;-3.2;65;100000;;;;
2022/03/01 20:34:07;;;;;;;43;61.6;;;;;;;-3.4;65.2;100000;;;;
2022/03/01 20:44:07;;;;;;;43;61.6;;;;;;;-3.5;65.6;99990;;;;
2022/03/01 20:55:07;;;;;;;46.2;59.7;;;;;;;-3.3;66;99980;;;;
2022/03/01 21:05:07;;;;;;;46.2;59.7;;;;;;;-2.9;65.4;99970;;;;
2022/03/01 21:15:07;;;;;;;46.2;59.7;;;;;;;-2.7;64.2;99970;;;;
2022/03/01 21:25:07;;;;;;;52.7;68.4;;;;;;;-2.7;63.3;99960;;;;
2022/03/01 21:35:07;;;;;;;52.7;68.4;;;;;;;-2.9;64.5;99960;;;;
2022/03/01 21:45:07;;;;;;;52.7;68.4;;;;;;;-3.2;66.5;99960;;;;
2022/03/01 21:56:07;;;;;;;76.6;95;;;;;;;-3.5;67.6;99950;;;;
2022/03/01 22:06:07;;;;;;;76.6;95;;;;;;;-3.9;69.7;99950;;;;
2022/03/01 22:17:07;;;;;;;76.6;95;;;;;;;-4.2;69.8;99940;;;;
2022/03/01 22:28:07;;;;;;;76.7;104.5;;;;;;;-4.4;70.3;99940;;;;
2022/03/01 22:39:07;;;;;;;76.7;104.5;;;;;;;-4.5;73.3;99930;;;;
2022/03/01 22:49:07;;;;;;;64.6;93.8;;;;;;;-4.5;72.7;99910;;;;
2022/03/01 23:00:07;;;;;;;64.6;93.8;;;;;;;-4.6;73.6;99910;;;;
2022/03/01 23:10:07;;;;;;;64.6;93.8;;;;;;;-4.7;72.3;99910;;;;
2022/03/01 23:21:07;;;;;;;55.2;82.9;;;;;;;-4.8;72.7;99890;;;;
2022/03/01 23:31:07;;;;;;;55.2;82.9;;;;;;;-5;72.3;99880;;;;
2022/03/01 23:42:08;;;;;;;55.2;82.9;;;;;;;-5;72.5;99870;;;;
2022/03/01 23:53:07;;;;;;;56.2;81.1;;;;;;;-5.1;72.4;99860;;;;
